sensor_id;sensor_type;location;lat;lon;timestamp;temperature;humidity
52435;DHT22;38354;52.892;6.148;2023-03-16T04:00:19;4.70;99.90
52435;DHT22;38354;52.892;6.148;2023-03-16T04:02:46;4.80;99.90
52435;DHT22;38354;52.892;6.148;2023-03-16T04:05:12;4.80;99.90
52435;DHT22;38354;52.892;6.148;2023-03-16T04:07:38;4.70;99.90
52435;DHT22;38354;52.892;6.148;2023-03-16T04:10:05;4.70;99.90
52435;DHT22;38354;52.892;6.148;2023-03-16T04:12:31;4.70;99.90
52435;DHT22;38354;52.892;6.148;2023-03-16T04:14:56;4.70;99.90
52435;DHT22;38354;52.892;6.148;2023-03-16T04:17:22;4.70;99.90
52435;DHT22;38354;52.892;6.148;2023-03-16T04:19:48;4.70;99.90
52435;DHT22;38354;52.892;6.148;2023-03-16T04:22:14;4.70;99.90
52435;DHT22;38354;52.892;6.148;2023-03-16T04:24:41;4.70;99.90
52435;DHT22;38354;52.892;6.148;2023-03-16T04:27:09;4.70;99.90
52435;DHT22;38354;52.892;6.148;2023-03-16T04:29:37;4.60;99.90
52435;DHT22;38354;52.892;6.148;2023-03-16T04:32:07;4.60;99.90
52435;DHT22;38354;52.892;6.148;2023-03-16T04:34:32;4.60;99.90
52435;DHT22;38354;52.892;6.148;2023-03-16T04:36:59;4.60;99.90
52435;DHT22;38354;52.892;6.148;2023-03-16T04:39:24;4.70;99.90
52435;DHT22;38354;52.892;6.148;2023-03-16T04:41:50;4.60;99.90
52435;DHT22;38354;52.892;6.148;2023-03-16T04:44:16;4.70;99.90
52435;DHT22;38354;52.892;6.148;2023-03-16T04:46:41;4.60;99.90
52435;DHT22;38354;52.892;6.148;2023-03-16T04:49:07;4.60;99.90
52435;DHT22;38354;52.892;6.148;2023-03-16T04:51:35;4.60;99.90
52435;DHT22;38354;52.892;6.148;2023-03-16T04:54:02;4.60;99.90
52435;DHT22;38354;52.892;6.148;2023-03-16T04:56:27;4.60;99.90
52435;DHT22;38354;52.892;6.148;2023-03-16T04:58:53;4.60;99.90
52435;DHT22;38354;52.892;6.148;2023-03-16T05:01:21;4.60;99.90
52435;DHT22;38354;52.892;6.148;2023-03-16T05:03:47;4.50;99.90
52435;DHT22;38354;52.892;6.148;2023-03-16T05:06:14;4.50;99.90
52435;DHT22;38354;52.892;6.148;2023-03-16T05:08:40;4.50;99.90
52435;DHT22;38354;52.892;6.148;2023-03-16T05:11:06;4.50;99.90
52435;DHT22;38354;52.892;6.148;2023-03-16T05:13:32;4.50;99.90
52435;DHT22;38354;52.892;6.148;2023-03-16T05:15:58;4.50;99.90
52435;DHT22;38354;52.892;6.148;2023-03-16T05:18:24;4.50;99.90
52435;DHT22;38354;52.892;6.148;2023-03-16T05:20:54;4.50;99.90
52435;DHT22;38354;52.892;6.148;2023-03-16T05:23:20;4.50;99.90
52435;DHT22;38354;52.892;6.148;2023-03-16T05:25:47;4.50;99.90
52435;DHT22;38354;52.892;6.148;2023-03-16T05:28:13;4.50;99.90
52435;DHT22;38354;52.892;6.148;2023-03-16T05:30:39;4.50;99.90
52435;DHT22;38354;52.892;6.148;2023-03-16T05:33:07;4.50;99.90
52435;DHT22;38354;52.892;6.148;2023-03-16T05:35:33;4.50;99.90
52435;DHT22;38354;52.892;6.148;2023-03-16T05:37:58;4.40;99.90
52435;DHT22;38354;52.892;6.148;2023-03-16T05:40:24;4.40;99.90
52435;DHT22;38354;52.892;6.148;2023-03-16T05:42:54;4.50;99.90
52435;DHT22;38354;52.892;6.148;2023-03-16T05:45:20;4.40;99.90
52435;DHT22;38354;52.892;6.148;2023-03-16T05:47:46;4.40;99.90
52435;DHT22;38354;52.892;6.148;2023-03-16T05:50:13;4.40;99.90
52435;DHT22;38354;52.892;6.148;2023-03-16T05:52:39;4.40;99.90
52435;DHT22;38354;52.892;6.148;2023-03-16T05:55:06;4.40;99.90
52435;DHT22;38354;52.892;6.148;2023-03-16T05:57:33;4.40;99.90
52435;DHT22;38354;52.892;6.148;2023-03-16T05:59:59;4.40;99.90
52435;DHT22;38354;52.892;6.148;2023-03-16T06:02:27;4.40;99.90
52435;DHT22;38354;52.892;6.148;2023-03-16T06:04:53;4.40;99.90
52435;DHT22;38354;52.892;6.148;2023-03-16T06:07:19;4.40;99.90
52435;DHT22;38354;52.892;6.148;2023-03-16T06:09:45;4.40;99.90
52435;DHT22;38354;52.892;6.148;2023-03-16T06:12:10;4.50;99.90
52435;DHT22;38354;52.892;6.148;2023-03-16T06:14:36;4.50;99.90
52435;DHT22;38354;52.892;6.148;2023-03-16T06:17:02;4.50;99.90
52435;DHT22;38354;52.892;6.148;2023-03-16T06:19:27;4.50;99.90
52435;DHT22;38354;52.892;6.148;2023-03-16T06:21:53;4.50;99.90
52435;DHT22;38354;52.892;6.148;2023-03-16T06:24:19;4.50;99.90
52435;DHT22;38354;52.892;6.148;2023-03-16T06:26:44;4.60;99.90
52435;DHT22;38354;52.892;6.148;2023-03-16T06:29:10;4.60;99.90
52435;DHT22;38354;52.892;6.148;2023-03-16T06:31:36;4.60;99.90
52435;DHT22;38354;52.892;6.148;2023-03-16T06:34:01;4.60;99.90
52435;DHT22;38354;52.892;6.148;2023-03-16T06:36:27;4.60;99.90
52435;DHT22;38354;52.892;6.148;2023-03-16T06:38:53;4.60;99.90
52435;DHT22;38354;52.892;6.148;2023-03-16T06:41:19;4.60;99.90
52435;DHT22;38354;52.892;6.148;2023-03-16T06:43:45;4.60;99.90
52435;DHT22;38354;52.892;6.148;2023-03-16T06:46:11;4.60;99.90
52435;DHT22;38354;52.892;6.148;2023-03-16T06:48:37;4.60;99.90
52435;DHT22;38354;52.892;6.148;2023-03-16T06:51:03;4.60;99.90
52435;DHT22;38354;52.892;6.148;2023-03-16T06:53:28;4.60;99.90
52435;DHT22;38354;52.892;6.148;2023-03-16T06:55:54;4.70;99.90
52435;DHT22;38354;52.892;6.148;2023-03-16T06:58:19;4.70;99.90
52435;DHT22;38354;52.892;6.148;2023-03-16T07:00:45;4.70;99.90
52435;DHT22;38354;52.892;6.148;2023-03-16T07:03:11;4.70;99.90
52435;DHT22;38354;52.892;6.148;2023-03-16T07:05:37;4.80;99.90
52435;DHT22;38354;52.892;6.148;2023-03-16T07:08:02;4.80;99.90
52435;DHT22;38354;52.892;6.148;2023-03-16T07:10:29;4.80;99.90
52435;DHT22;38354;52.892;6.148;2023-03-16T07:12:55;4.80;99.90
52435;DHT22;38354;52.892;6.148;2023-03-16T07:15:21;4.80;99.90
52435;DHT22;38354;52.892;6.148;2023-03-16T07:17:49;4.80;99.90
52435;DHT22;38354;52.892;6.148;2023-03-16T07:20:17;4.80;99.90
52435;DHT22;38354;52.892;6.148;2023-03-16T07:22:42;4.90;99.90
52435;DHT22;38354;52.892;6.148;2023-03-16T07:25:10;4.90;99.90
52435;DHT22;38354;52.892;6.148;2023-03-16T07:27:36;4.90;99.90
52435;DHT22;38354;52.892;6.148;2023-03-16T07:30:04;4.90;99.90
52435;DHT22;38354;52.892;6.148;2023-03-16T07:32:30;4.90;99.90
52435;DHT22;38354;52.892;6.148;2023-03-16T07:34:59;4.90;99.90
52435;DHT22;38354;52.892;6.148;2023-03-16T07:37:25;4.90;99.90
52435;DHT22;38354;52.892;6.148;2023-03-16T07:39:50;4.90;99.90
52435;DHT22;38354;52.892;6.148;2023-03-16T07:42:17;5.00;99.90
52435;DHT22;38354;52.892;6.148;2023-03-16T07:44:43;5.00;99.90
52435;DHT22;38354;52.892;6.148;2023-03-16T07:47:11;5.00;99.90
52435;DHT22;38354;52.892;6.148;2023-03-16T07:49:37;5.00;99.90
52435;DHT22;38354;52.892;6.148;2023-03-16T07:52:03;5.00;99.90
52435;DHT22;38354;52.892;6.148;2023-03-16T07:54:29;5.00;99.90
52435;DHT22;38354;52.892;6.148;2023-03-16T07:56:54;5.00;99.90
52435;DHT22;38354;52.892;6.148;2023-03-16T07:59:20;5.00;99.90
52435;DHT22;38354;52.892;6.148;2023-03-16T08:01:46;4.90;99.90
52435;DHT22;38354;52.892;6.148;2023-03-16T08:04:12;4.90;99.90
52435;DHT22;38354;52.892;6.148;2023-03-16T08:06:37;4.90;99.90
52435;DHT22;38354;52.892;6.148;2023-03-16T08:09:03;4.90;99.90
52435;DHT22;38354;52.892;6.148;2023-03-16T08:11:29;4.90;99.90
52435;DHT22;38354;52.892;6.148;2023-03-16T08:13:55;4.90;99.90
52435;DHT22;38354;52.892;6.148;2023-03-16T08:16:26;4.90;99.90
52435;DHT22;38354;52.892;6.148;2023-03-16T08:18:54;4.90;99.90
52435;DHT22;38354;52.892;6.148;2023-03-16T08:21:20;4.90;99.90
52435;DHT22;38354;52.892;6.148;2023-03-16T08:23:46;4.90;99.90
52435;DHT22;38354;52.892;6.148;2023-03-16T08:26:15;4.90;99.90
52435;DHT22;38354;52.892;6.148;2023-03-16T08:28:45;4.90;99.90
52435;DHT22;38354;52.892;6.148;2023-03-16T08:31:11;4.90;99.90
52435;DHT22;38354;52.892;6.148;2023-03-16T08:33:42;5.00;99.90
52435;DHT22;38354;52.892;6.148;2023-03-16T08:36:09;5.00;99.90
52435;DHT22;38354;52.892;6.148;2023-03-16T08:38:36;5.00;99.90
52435;DHT22;38354;52.892;6.148;2023-03-16T08:41:03;5.00;99.90
52435;DHT22;38354;52.892;6.148;2023-03-16T08:43:29;5.00;99.90
52435;DHT22;38354;52.892;6.148;2023-03-16T08:45:55;5.00;99.90
52435;DHT22;38354;52.892;6.148;2023-03-16T08:48:20;5.00;99.90
52435;DHT22;38354;52.892;6.148;2023-03-16T08:50:47;5.00;99.90
52435;DHT22;38354;52.892;6.148;2023-03-16T08:53:13;5.10;99.90
52435;DHT22;38354;52.892;6.148;2023-03-16T08:55:39;5.10;99.90
52435;DHT22;38354;52.892;6.148;2023-03-16T08:58:09;5.10;99.90
52435;DHT22;38354;52.892;6.148;2023-03-16T09:00:35;5.10;99.90
52435;DHT22;38354;52.892;6.148;2023-03-16T09:03:00;5.10;99.90
52435;DHT22;38354;52.892;6.148;2023-03-16T09:05:28;5.10;99.90
52435;DHT22;38354;52.892;6.148;2023-03-16T09:07:54;5.20;99.90
52435;DHT22;38354;52.892;6.148;2023-03-16T09:10:20;5.20;99.90
52435;DHT22;38354;52.892;6.148;2023-03-16T09:12:48;5.20;99.90
52435;DHT22;38354;52.892;6.148;2023-03-16T09:15:15;5.20;99.90
52435;DHT22;38354;52.892;6.148;2023-03-16T09:17:40;5.20;99.90
52435;DHT22;38354;52.892;6.148;2023-03-16T09:20:08;5.30;99.90
52435;DHT22;38354;52.892;6.148;2023-03-16T09:22:35;5.20;99.90
52435;DHT22;38354;52.892;6.148;2023-03-16T09:25:03;5.20;99.90
52435;DHT22;38354;52.892;6.148;2023-03-16T09:27:31;5.20;99.90
52435;DHT22;38354;52.892;6.148;2023-03-16T09:29:57;5.20;99.90
52435;DHT22;38354;52.892;6.148;2023-03-16T09:32:25;5.20;99.90
52435;DHT22;38354;52.892;6.148;2023-03-16T09:34:55;5.20;99.90
52435;DHT22;38354;52.892;6.148;2023-03-16T09:37:22;5.20;99.90
52435;DHT22;38354;52.892;6.148;2023-03-16T09:39:48;5.20;99.90
52435;DHT22;38354;52.892;6.148;2023-03-16T09:42:35;5.20;99.90
52435;DHT22;38354;52.892;6.148;2023-03-16T09:47:36;5.20;99.90
52435;DHT22;38354;52.892;6.148;2023-03-16T09:50:06;5.30;99.90
52435;DHT22;38354;52.892;6.148;2023-03-16T09:52:42;5.30;99.90
52435;DHT22;38354;52.892;6.148;2023-03-16T09:55:31;5.30;99.90
52435;DHT22;38354;52.892;6.148;2023-03-16T09:57:59;5.30;99.90
52435;DHT22;38354;52.892;6.148;2023-03-16T10:00:27;5.40;99.90
52435;DHT22;38354;52.892;6.148;2023-03-16T10:05:39;5.40;99.90
52435;DHT22;38354;52.892;6.148;2023-03-16T10:08:12;5.50;99.90
52435;DHT22;38354;52.892;6.148;2023-03-16T10:16:30;5.60;99.90
52435;DHT22;38354;52.892;6.148;2023-03-16T10:19:06;5.70;99.90
52435;DHT22;38354;52.892;6.148;2023-03-16T10:21:38;5.70;99.90
52435;DHT22;38354;52.892;6.148;2023-03-16T10:24:09;5.80;99.90
52435;DHT22;38354;52.892;6.148;2023-03-16T10:26:41;5.90;99.90
52435;DHT22;38354;52.892;6.148;2023-03-16T10:29:10;5.90;99.90
52435;DHT22;38354;52.892;6.148;2023-03-16T10:31:39;6.00;99.90
52435;DHT22;38354;52.892;6.148;2023-03-16T10:34:06;6.00;99.90
52435;DHT22;38354;52.892;6.148;2023-03-16T10:36:38;6.10;99.90
52435;DHT22;38354;52.892;6.148;2023-03-16T10:39:12;6.10;99.90
52435;DHT22;38354;52.892;6.148;2023-03-16T10:41:42;6.20;99.90
52435;DHT22;38354;52.892;6.148;2023-03-16T10:44:21;6.20;99.90
52435;DHT22;38354;52.892;6.148;2023-03-16T10:46:50;6.20;99.90
52435;DHT22;38354;52.892;6.148;2023-03-16T10:49:26;6.20;99.90
52435;DHT22;38354;52.892;6.148;2023-03-16T10:51:57;6.20;99.90
52435;DHT22;38354;52.892;6.148;2023-03-16T10:54:37;6.30;99.90
52435;DHT22;38354;52.892;6.148;2023-03-16T10:57:23;6.30;99.90
52435;DHT22;38354;52.892;6.148;2023-03-16T10:59:52;6.40;99.90
52435;DHT22;38354;52.892;6.148;2023-03-16T11:02:24;6.50;99.90
52435;DHT22;38354;52.892;6.148;2023-03-16T11:04:54;6.60;99.90
52435;DHT22;38354;52.892;6.148;2023-03-16T11:07:21;6.70;99.90
52435;DHT22;38354;52.892;6.148;2023-03-16T11:09:53;6.80;99.90
52435;DHT22;38354;52.892;6.148;2023-03-16T11:12:25;6.90;99.90
52435;DHT22;38354;52.892;6.148;2023-03-16T11:14:52;7.00;99.90
52435;DHT22;38354;52.892;6.148;2023-03-16T11:17:26;7.10;99.90
52435;DHT22;38354;52.892;6.148;2023-03-16T11:19:55;7.20;99.90
52435;DHT22;38354;52.892;6.148;2023-03-16T11:22:25;7.40;99.90
52435;DHT22;38354;52.892;6.148;2023-03-16T11:25:20;7.50;99.90
52435;DHT22;38354;52.892;6.148;2023-03-16T11:28:08;7.60;99.90
52435;DHT22;38354;52.892;6.148;2023-03-16T11:33:08;7.80;99.90
52435;DHT22;38354;52.892;6.148;2023-03-16T11:38:27;8.10;99.90
52435;DHT22;38354;52.892;6.148;2023-03-16T11:41:04;8.40;99.90
52435;DHT22;38354;52.892;6.148;2023-03-16T11:43:54;8.60;99.90
52435;DHT22;38354;52.892;6.148;2023-03-16T11:49:13;8.60;99.90
52435;DHT22;38354;52.892;6.148;2023-03-16T11:52:13;8.70;99.90
52435;DHT22;38354;52.892;6.148;2023-03-16T11:54:55;8.80;99.90
52435;DHT22;38354;52.892;6.148;2023-03-16T11:57:59;8.90;99.90
52435;DHT22;38354;52.892;6.148;2023-03-16T12:03:34;9.00;99.90
52435;DHT22;38354;52.892;6.148;2023-03-16T12:06:25;9.00;99.90
52435;DHT22;38354;52.892;6.148;2023-03-16T12:09:35;9.00;99.90
52435;DHT22;38354;52.892;6.148;2023-03-16T12:17:47;9.00;99.90
52435;DHT22;38354;52.892;6.148;2023-03-16T12:20:36;9.00;99.90
52435;DHT22;38354;52.892;6.148;2023-03-16T12:23:11;9.00;99.90
52435;DHT22;38354;52.892;6.148;2023-03-16T12:25:43;9.10;99.90
52435;DHT22;38354;52.892;6.148;2023-03-16T12:28:20;9.10;99.90
52435;DHT22;38354;52.892;6.148;2023-03-16T12:33:23;9.00;99.90
52435;DHT22;38354;52.892;6.148;2023-03-16T12:38:24;8.90;99.90
52435;DHT22;38354;52.892;6.148;2023-03-16T12:46:12;8.80;99.90
52435;DHT22;38354;52.892;6.148;2023-03-16T12:48:45;8.80;99.90
52435;DHT22;38354;52.892;6.148;2023-03-16T12:51:11;8.80;99.90
52435;DHT22;38354;52.892;6.148;2023-03-16T12:53:51;8.80;99.90
52435;DHT22;38354;52.892;6.148;2023-03-16T12:56:35;8.90;99.90
52435;DHT22;38354;52.892;6.148;2023-03-16T12:59:18;8.90;99.90
52435;DHT22;38354;52.892;6.148;2023-03-16T13:01:50;9.00;99.90
52435;DHT22;38354;52.892;6.148;2023-03-16T13:04:22;9.00;99.90
52435;DHT22;38354;52.892;6.148;2023-03-16T13:07:03;9.10;99.90
52435;DHT22;38354;52.892;6.148;2023-03-16T13:09:30;9.10;99.90
52435;DHT22;38354;52.892;6.148;2023-03-16T13:11:57;9.20;99.90
52435;DHT22;38354;52.892;6.148;2023-03-16T13:14:42;9.30;99.90
52435;DHT22;38354;52.892;6.148;2023-03-16T13:19:40;9.50;99.90
52435;DHT22;38354;52.892;6.148;2023-03-16T13:24:55;9.50;99.90
52435;DHT22;38354;52.892;6.148;2023-03-16T13:27:29;9.60;99.90
52435;DHT22;38354;52.892;6.148;2023-03-16T13:29:59;9.60;99.90
52435;DHT22;38354;52.892;6.148;2023-03-16T13:32:30;9.70;99.90
52435;DHT22;38354;52.892;6.148;2023-03-16T13:35:01;9.80;99.90
52435;DHT22;38354;52.892;6.148;2023-03-16T13:37:29;10.00;99.90
52435;DHT22;38354;52.892;6.148;2023-03-16T13:39:57;10.10;99.90
52435;DHT22;38354;52.892;6.148;2023-03-16T13:42:28;10.10;99.90
52435;DHT22;38354;52.892;6.148;2023-03-16T13:44:58;10.10;99.90
52435;DHT22;38354;52.892;6.148;2023-03-16T13:47:32;10.10;99.90
52435;DHT22;38354;52.892;6.148;2023-03-16T13:49:59;10.10;99.90
52435;DHT22;38354;52.892;6.148;2023-03-16T13:52:28;10.10;99.90
52435;DHT22;38354;52.892;6.148;2023-03-16T13:54:56;10.10;99.90
52435;DHT22;38354;52.892;6.148;2023-03-16T13:57:25;10.10;99.90
52435;DHT22;38354;52.892;6.148;2023-03-16T13:59:59;10.10;99.90
52435;DHT22;38354;52.892;6.148;2023-03-16T14:02:25;10.10;99.90
52435;DHT22;38354;52.892;6.148;2023-03-16T14:04:51;10.00;99.90
52435;DHT22;38354;52.892;6.148;2023-03-16T14:07:19;9.90;99.90
52435;DHT22;38354;52.892;6.148;2023-03-16T14:09:45;9.90;99.90
52435;DHT22;38354;52.892;6.148;2023-03-16T14:12:18;9.90;99.90
52435;DHT22;38354;52.892;6.148;2023-03-16T14:14:53;9.90;99.90
52435;DHT22;38354;52.892;6.148;2023-03-16T14:17:20;9.90;99.90
52435;DHT22;38354;52.892;6.148;2023-03-16T14:19:51;10.00;99.90
52435;DHT22;38354;52.892;6.148;2023-03-16T14:22:32;10.10;99.90
52435;DHT22;38354;52.892;6.148;2023-03-16T14:24:59;10.20;99.90
52435;DHT22;38354;52.892;6.148;2023-03-16T14:27:30;10.30;99.90
52435;DHT22;38354;52.892;6.148;2023-03-16T14:30:16;10.40;99.90
52435;DHT22;38354;52.892;6.148;2023-03-16T14:33:00;10.50;99.90
52435;DHT22;38354;52.892;6.148;2023-03-16T14:35:29;10.50;99.90
52435;DHT22;38354;52.892;6.148;2023-03-16T14:37:55;10.60;99.90
52435;DHT22;38354;52.892;6.148;2023-03-16T14:40:27;10.70;99.90
52435;DHT22;38354;52.892;6.148;2023-03-16T14:42:58;10.90;99.90
52435;DHT22;38354;52.892;6.148;2023-03-16T14:45:34;11.00;99.90
52435;DHT22;38354;52.892;6.148;2023-03-16T14:48:08;11.10;99.90
52435;DHT22;38354;52.892;6.148;2023-03-16T14:50:41;11.20;99.90
52435;DHT22;38354;52.892;6.148;2023-03-16T14:53:08;11.20;99.90
52435;DHT22;38354;52.892;6.148;2023-03-16T14:55:35;11.20;99.90
52435;DHT22;38354;52.892;6.148;2023-03-16T14:58:02;11.20;99.90
52435;DHT22;38354;52.892;6.148;2023-03-16T15:06:11;11.20;99.90
52435;DHT22;38354;52.892;6.148;2023-03-16T15:19:40;11.10;99.90
52435;DHT22;38354;52.892;6.148;2023-03-16T15:25:45;11.20;99.90
52435;DHT22;38354;52.892;6.148;2023-03-16T15:28:27;11.10;99.90
52435;DHT22;38354;52.892;6.148;2023-03-16T15:31:11;11.10;99.90
52435;DHT22;38354;52.892;6.148;2023-03-16T15:34:00;11.10;99.90
52435;DHT22;38354;52.892;6.148;2023-03-16T15:37:04;11.10;99.90
52435;DHT22;38354;52.892;6.148;2023-03-16T15:43:49;11.10;99.90
52435;DHT22;38354;52.892;6.148;2023-03-16T15:57:57;10.90;99.90
52435;DHT22;38354;52.892;6.148;2023-03-16T16:00:44;10.90;99.90
52435;DHT22;38354;52.892;6.148;2023-03-16T16:03:56;10.90;99.90
52435;DHT22;38354;52.892;6.148;2023-03-16T16:18:16;11.00;99.90
52435;DHT22;38354;52.892;6.148;2023-03-16T16:27:09;10.90;99.90
52435;DHT22;38354;52.892;6.148;2023-03-16T16:29:51;10.90;99.90
52435;DHT22;38354;52.892;6.148;2023-03-16T16:35:40;10.90;99.90
52435;DHT22;38354;52.892;6.148;2023-03-16T16:38:57;10.80;99.90
52435;DHT22;38354;52.892;6.148;2023-03-16T16:59:00;10.30;99.90
52435;DHT22;38354;52.892;6.148;2023-03-16T17:07:39;10.10;99.90
52435;DHT22;38354;52.892;6.148;2023-03-16T17:11:02;10.10;99.90
52435;DHT22;38354;52.892;6.148;2023-03-16T17:14:20;10.00;99.90
52435;DHT22;38354;52.892;6.148;2023-03-16T17:28:34;9.90;99.90
52435;DHT22;38354;52.892;6.148;2023-03-16T17:46:07;9.80;99.90
52435;DHT22;38354;52.892;6.148;2023-03-16T17:52:16;9.80;99.90
52435;DHT22;38354;52.892;6.148;2023-03-16T17:54:51;9.80;99.90
52435;DHT22;38354;52.892;6.148;2023-03-16T18:13:00;9.60;99.90
52435;DHT22;38354;52.892;6.148;2023-03-16T18:25:17;9.50;99.90
52435;DHT22;38354;52.892;6.148;2023-03-16T18:45:20;9.20;99.90
52435;DHT22;38354;52.892;6.148;2023-03-16T18:47:51;9.20;99.90
52435;DHT22;38354;52.892;6.148;2023-03-16T18:50:26;9.20;99.90
52435;DHT22;38354;52.892;6.148;2023-03-16T18:52:54;9.20;99.90
52435;DHT22;38354;52.892;6.148;2023-03-16T18:55:21;9.20;99.90
52435;DHT22;38354;52.892;6.148;2023-03-16T18:57:49;9.20;99.90
52435;DHT22;38354;52.892;6.148;2023-03-16T19:00:20;9.20;99.90
52435;DHT22;38354;52.892;6.148;2023-03-16T19:02:59;9.20;99.90
52435;DHT22;38354;52.892;6.148;2023-03-16T19:05:33;9.20;99.90
52435;DHT22;38354;52.892;6.148;2023-03-16T19:08:01;9.20;99.90
52435;DHT22;38354;52.892;6.148;2023-03-16T19:10:36;9.10;99.90
52435;DHT22;38354;52.892;6.148;2023-03-16T19:13:04;9.10;99.90
52435;DHT22;38354;52.892;6.148;2023-03-16T19:15:35;9.10;99.90
52435;DHT22;38354;52.892;6.148;2023-03-16T19:18:00;9.10;99.90
52435;DHT22;38354;52.892;6.148;2023-03-16T19:20:28;9.10;99.90
52435;DHT22;38354;52.892;6.148;2023-03-16T19:25:50;9.00;99.90
52435;DHT22;38354;52.892;6.148;2023-03-16T19:28:26;9.00;99.90
52435;DHT22;38354;52.892;6.148;2023-03-16T19:30:54;9.00;99.90
52435;DHT22;38354;52.892;6.148;2023-03-16T19:33:23;9.00;99.90
52435;DHT22;38354;52.892;6.148;2023-03-16T19:35:51;9.00;99.90
52435;DHT22;38354;52.892;6.148;2023-03-16T19:38:17;8.90;99.90
52435;DHT22;38354;52.892;6.148;2023-03-16T19:40:43;8.90;99.90
52435;DHT22;38354;52.892;6.148;2023-03-16T19:43:17;8.90;99.90
52435;DHT22;38354;52.892;6.148;2023-03-16T19:45:43;8.90;99.90
52435;DHT22;38354;52.892;6.148;2023-03-16T19:48:13;8.90;99.90
52435;DHT22;38354;52.892;6.148;2023-03-16T19:50:39;8.90;99.90
52435;DHT22;38354;52.892;6.148;2023-03-16T19:53:17;8.90;99.90
52435;DHT22;38354;52.892;6.148;2023-03-16T19:55:43;9.00;99.90
52435;DHT22;38354;52.892;6.148;2023-03-16T19:58:18;9.00;99.90
52435;DHT22;38354;52.892;6.148;2023-03-16T20:00:45;9.10;99.90
52435;DHT22;38354;52.892;6.148;2023-03-16T20:03:11;9.10;99.90
52435;DHT22;38354;52.892;6.148;2023-03-16T20:05:37;9.10;99.90
52435;DHT22;38354;52.892;6.148;2023-03-16T20:10:46;9.10;99.90
52435;DHT22;38354;52.892;6.148;2023-03-16T20:13:12;9.10;99.90
52435;DHT22;38354;52.892;6.148;2023-03-16T20:15:38;9.10;99.90
52435;DHT22;38354;52.892;6.148;2023-03-16T20:18:05;9.10;99.90
52435;DHT22;38354;52.892;6.148;2023-03-16T20:20:38;9.10;99.90
52435;DHT22;38354;52.892;6.148;2023-03-16T20:23:18;9.10;99.90
52435;DHT22;38354;52.892;6.148;2023-03-16T20:25:45;9.10;99.90
52435;DHT22;38354;52.892;6.148;2023-03-16T20:28:22;9.10;99.90
52435;DHT22;38354;52.892;6.148;2023-03-16T20:30:49;9.00;99.90
52435;DHT22;38354;52.892;6.148;2023-03-16T20:33:21;9.10;99.90
52435;DHT22;38354;52.892;6.148;2023-03-16T20:35:48;9.00;99.90
52435;DHT22;38354;52.892;6.148;2023-03-16T20:38:14;9.10;99.90
52435;DHT22;38354;52.892;6.148;2023-03-16T20:40:42;9.10;99.90
52435;DHT22;38354;52.892;6.148;2023-03-16T20:43:28;9.00;99.90
52435;DHT22;38354;52.892;6.148;2023-03-16T20:45:57;9.00;99.90
52435;DHT22;38354;52.892;6.148;2023-03-16T20:48:23;9.00;99.90
52435;DHT22;38354;52.892;6.148;2023-03-16T20:50:50;9.00;99.90
52435;DHT22;38354;52.892;6.148;2023-03-16T20:53:16;9.00;99.90
52435;DHT22;38354;52.892;6.148;2023-03-16T20:55:42;9.00;99.90
52435;DHT22;38354;52.892;6.148;2023-03-16T20:58:23;9.00;99.90
52435;DHT22;38354;52.892;6.148;2023-03-16T21:00:50;8.90;99.90
52435;DHT22;38354;52.892;6.148;2023-03-16T21:03:21;8.90;99.90
52435;DHT22;38354;52.892;6.148;2023-03-16T21:05:52;8.90;99.90
52435;DHT22;38354;52.892;6.148;2023-03-16T21:08:18;9.00;99.90
52435;DHT22;38354;52.892;6.148;2023-03-16T21:10:46;8.90;99.90
52435;DHT22;38354;52.892;6.148;2023-03-16T21:13:18;8.90;99.90
52435;DHT22;38354;52.892;6.148;2023-03-16T21:15:46;8.90;99.90
52435;DHT22;38354;52.892;6.148;2023-03-16T21:18:17;8.80;99.90
52435;DHT22;38354;52.892;6.148;2023-03-16T21:20:43;8.80;99.90
52435;DHT22;38354;52.892;6.148;2023-03-16T21:23:17;8.80;99.90
52435;DHT22;38354;52.892;6.148;2023-03-16T21:25:49;8.80;99.90
52435;DHT22;38354;52.892;6.148;2023-03-16T21:28:16;8.70;99.90
52435;DHT22;38354;52.892;6.148;2023-03-16T21:30:46;8.70;99.90
52435;DHT22;38354;52.892;6.148;2023-03-16T21:33:41;8.70;99.90
52435;DHT22;38354;52.892;6.148;2023-03-16T21:36:18;8.60;99.90
52435;DHT22;38354;52.892;6.148;2023-03-16T21:38:45;8.60;99.90
52435;DHT22;38354;52.892;6.148;2023-03-16T21:41:11;8.60;99.90
52435;DHT22;38354;52.892;6.148;2023-03-16T21:43:38;8.60;99.90
52435;DHT22;38354;52.892;6.148;2023-03-16T21:46:08;8.50;99.90
52435;DHT22;38354;52.892;6.148;2023-03-16T21:48:39;8.50;99.90
52435;DHT22;38354;52.892;6.148;2023-03-16T21:51:26;8.50;99.90
52435;DHT22;38354;52.892;6.148;2023-03-16T21:53:53;8.40;99.90
52435;DHT22;38354;52.892;6.148;2023-03-16T21:56:23;8.40;99.90
52435;DHT22;38354;52.892;6.148;2023-03-16T21:58:51;8.30;99.90
52435;DHT22;38354;52.892;6.148;2023-03-16T22:01:23;8.30;99.90
52435;DHT22;38354;52.892;6.148;2023-03-16T22:03:51;8.30;99.90
52435;DHT22;38354;52.892;6.148;2023-03-16T22:06:19;8.30;99.90
52435;DHT22;38354;52.892;6.148;2023-03-16T22:08:45;8.30;99.90
52435;DHT22;38354;52.892;6.148;2023-03-16T22:11:17;8.30;99.90
52435;DHT22;38354;52.892;6.148;2023-03-16T22:13:44;8.20;99.90
52435;DHT22;38354;52.892;6.148;2023-03-16T22:16:18;8.20;99.90
52435;DHT22;38354;52.892;6.148;2023-03-16T22:18:47;8.20;99.90
52435;DHT22;38354;52.892;6.148;2023-03-16T22:21:30;8.20;99.90
52435;DHT22;38354;52.892;6.148;2023-03-16T22:23:57;8.10;99.90
52435;DHT22;38354;52.892;6.148;2023-03-16T22:26:24;8.10;99.90
52435;DHT22;38354;52.892;6.148;2023-03-16T22:28:50;8.10;99.90
52435;DHT22;38354;52.892;6.148;2023-03-16T22:31:31;8.10;99.90
52435;DHT22;38354;52.892;6.148;2023-03-16T22:33:58;8.00;99.90
52435;DHT22;38354;52.892;6.148;2023-03-16T22:36:25;8.00;99.90
52435;DHT22;38354;52.892;6.148;2023-03-16T22:39:00;7.90;99.90
52435;DHT22;38354;52.892;6.148;2023-03-16T22:41:28;7.90;99.90
52435;DHT22;38354;52.892;6.148;2023-03-16T22:43:54;7.90;99.90
52435;DHT22;38354;52.892;6.148;2023-03-16T22:46:22;7.90;99.90
52435;DHT22;38354;52.892;6.148;2023-03-16T22:48:49;7.80;99.90
52435;DHT22;38354;52.892;6.148;2023-03-16T22:53:45;7.80;99.90
52435;DHT22;38354;52.892;6.148;2023-03-16T22:56:11;7.80;99.90
52435;DHT22;38354;52.892;6.148;2023-03-16T22:58:52;7.70;99.90
52435;DHT22;38354;52.892;6.148;2023-03-16T23:01:30;7.70;99.90
52435;DHT22;38354;52.892;6.148;2023-03-16T23:03:58;7.70;99.90
52435;DHT22;38354;52.892;6.148;2023-03-16T23:06:27;7.70;99.90
52435;DHT22;38354;52.892;6.148;2023-03-16T23:08:53;7.70;99.90
52435;DHT22;38354;52.892;6.148;2023-03-16T23:11:20;7.70;99.90
52435;DHT22;38354;52.892;6.148;2023-03-16T23:13:47;7.60;99.90
52435;DHT22;38354;52.892;6.148;2023-03-16T23:16:24;7.70;99.90
52435;DHT22;38354;52.892;6.148;2023-03-16T23:18:51;7.60;99.90
52435;DHT22;38354;52.892;6.148;2023-03-16T23:21:20;7.60;99.90
52435;DHT22;38354;52.892;6.148;2023-03-16T23:23:46;7.60;99.90
52435;DHT22;38354;52.892;6.148;2023-03-16T23:28:43;7.60;99.90
52435;DHT22;38354;52.892;6.148;2023-03-16T23:31:10;7.60;99.90
52435;DHT22;38354;52.892;6.148;2023-03-16T23:33:37;7.60;99.90